createdAt,value
2023-01-07T00:00:28.502Z,0.80
2023-01-07T00:02:59.722Z,0.77
2023-01-07T00:05:29.300Z,0.60
2023-01-07T00:07:59.718Z,0.60
2023-01-07T00:10:28.653Z,0.50
2023-01-07T00:12:57.264Z,0.63
2023-01-07T00:15:25.634Z,0.50
2023-01-07T00:17:54.664Z,0.50
2023-01-07T00:20:24.455Z,0.60
2023-01-07T00:22:53.429Z,0.63
2023-01-07T00:25:22.040Z,0.90
2023-01-07T00:27:50.833Z,1.52
2023-01-07T00:30:19.601Z,1.25
2023-01-07T00:33:04.681Z,1.80
2023-01-07T00:35:37.321Z,1.60
2023-01-07T00:38:06.765Z,1.73
2023-01-07T00:40:35.408Z,1.95
2023-01-07T00:43:07.218Z,2.15
2023-01-07T00:45:38.355Z,1.83
2023-01-07T00:48:08.301Z,2.25
2023-01-07T00:50:40.111Z,1.98
2023-01-07T00:53:08.794Z,1.67
2023-01-07T00:55:40.157Z,2.50
2023-01-07T00:58:08.843Z,2.13
2023-01-07T01:00:37.534Z,2.10
2023-01-07T01:03:06.094Z,2.33
2023-01-07T01:05:34.717Z,2.20
2023-01-07T01:08:08.056Z,2.20
2023-01-07T01:10:39.933Z,2.88
2023-01-07T01:13:11.649Z,1.95
2023-01-07T01:15:44.021Z,1.77
2023-01-07T01:18:13.283Z,2.10
2023-01-07T01:20:42.191Z,2.20
2023-01-07T01:23:12.281Z,2.55
2023-01-07T01:25:43.019Z,2.28
2023-01-07T01:28:11.619Z,3.42
2023-01-07T01:30:41.014Z,3.65
2023-01-07T01:33:09.545Z,2.60
2023-01-07T01:35:42.595Z,2.28
2023-01-07T01:38:13.635Z,2.13
2023-01-07T01:40:42.247Z,1.90
2023-01-07T01:43:31.110Z,1.90
2023-01-07T01:46:02.407Z,2.35
2023-01-07T01:48:35.900Z,2.20
2023-01-07T01:51:05.340Z,2.53
2023-01-07T01:53:37.560Z,2.83
2023-01-07T01:56:12.372Z,2.50
2023-01-07T01:58:44.710Z,2.47
2023-01-07T02:01:14.413Z,1.90
2023-01-07T02:03:46.594Z,2.05
2023-01-07T02:06:22.872Z,1.70
2023-01-07T02:08:53.487Z,1.50
2023-01-07T02:11:36.589Z,1.70
2023-01-07T02:14:21.771Z,1.70
2023-01-07T02:16:56.769Z,1.50
2023-01-07T02:20:02.455Z,1.80
2023-01-07T02:22:48.691Z,1.58
2023-01-07T02:25:42.249Z,1.58
2023-01-07T02:28:36.678Z,1.60
2023-01-07T02:31:28.100Z,1.65
2023-01-07T02:34:06.113Z,1.38
2023-01-07T02:36:48.788Z,1.70
2023-01-07T02:39:37.379Z,1.92
2023-01-07T02:42:15.464Z,1.50
2023-01-07T02:44:47.709Z,1.58
2023-01-07T02:47:21.666Z,1.58
2023-01-07T02:49:51.763Z,1.95
2023-01-07T02:52:23.702Z,1.33
2023-01-07T02:54:57.745Z,1.20
2023-01-07T02:58:00.386Z,1.30
2023-01-07T03:01:12.740Z,1.48
2023-01-07T03:03:57.037Z,1.23
2023-01-07T03:06:42.117Z,1.50
2023-01-07T03:09:17.983Z,1.50
2023-01-07T03:11:54.487Z,1.33
2023-01-07T03:14:31.039Z,1.33
2023-01-07T03:17:05.130Z,1.48
2023-01-07T03:19:36.431Z,1.80
2023-01-07T03:22:10.301Z,1.65
2023-01-07T03:24:40.133Z,2.00
2023-01-07T03:27:10.919Z,1.55
2023-01-07T03:29:39.614Z,1.73
2023-01-07T03:32:15.005Z,1.80
2023-01-07T03:34:44.878Z,1.73
2023-01-07T03:37:18.527Z,1.77
2023-01-07T03:39:48.944Z,1.55
2023-01-07T03:42:49.312Z,1.50
2023-01-07T03:45:20.572Z,1.70
2023-01-07T03:47:51.381Z,1.33
2023-01-07T03:50:22.171Z,1.30
2023-01-07T03:52:52.259Z,1.23
2023-01-07T03:55:20.980Z,1.00
2023-01-07T03:57:49.763Z,1.23
2023-01-07T04:00:19.101Z,1.10
2023-01-07T04:02:47.794Z,1.38
2023-01-07T04:05:16.624Z,1.10
2023-01-07T04:07:45.301Z,1.00
2023-01-07T04:10:15.473Z,1.10
2023-01-07T04:12:45.156Z,1.05
2023-01-07T04:15:19.857Z,0.90
2023-01-07T04:17:48.482Z,1.20
2023-01-07T04:20:18.178Z,1.38
2023-01-07T04:22:46.674Z,1.52
2023-01-07T04:25:16.641Z,1.40
2023-01-07T04:27:45.133Z,1.10
2023-01-07T04:30:14.560Z,1.50
2023-01-07T04:32:42.997Z,1.10
2023-01-07T04:35:11.718Z,1.10
2023-01-07T04:37:40.267Z,1.17
2023-01-07T04:40:10.813Z,1.00
2023-01-07T04:42:40.902Z,1.27
2023-01-07T04:45:10.516Z,1.10
2023-01-07T04:47:39.940Z,1.30
2023-01-07T04:50:09.740Z,1.30
2023-01-07T04:52:39.584Z,1.60
2023-01-07T04:55:11.416Z,1.20
2023-01-07T04:57:42.203Z,1.30
2023-01-07T05:00:12.506Z,1.30
2023-01-07T05:02:41.364Z,1.08
2023-01-07T05:05:10.996Z,1.00
2023-01-07T05:07:39.598Z,1.40
2023-01-07T05:10:09.172Z,1.00
2023-01-07T05:12:38.393Z,0.90
2023-01-07T05:15:10.259Z,0.80
2023-01-07T05:17:38.929Z,1.00
2023-01-07T05:20:10.284Z,1.00
2023-01-07T05:22:38.853Z,0.82
2023-01-07T05:25:08.159Z,1.20
2023-01-07T05:27:36.721Z,0.95
2023-01-07T05:30:05.657Z,1.05
2023-01-07T05:32:40.104Z,0.82
2023-01-07T05:35:10.128Z,1.20
2023-01-07T05:37:38.807Z,1.08
2023-01-07T05:40:09.009Z,1.00
2023-01-07T05:42:38.847Z,1.20
2023-01-07T05:45:09.074Z,0.90
2023-01-07T05:47:37.473Z,1.08
2023-01-07T05:50:09.244Z,1.00
2023-01-07T05:52:37.643Z,1.35
2023-01-07T05:55:07.337Z,1.10
2023-01-07T05:57:36.099Z,1.00
2023-01-07T06:00:05.994Z,1.70
2023-01-07T06:02:52.673Z,1.05
2023-01-07T06:05:23.001Z,0.95
2023-01-07T06:07:51.495Z,1.10
2023-01-07T06:10:20.061Z,1.08
2023-01-07T06:12:51.485Z,0.90
2023-01-07T06:15:21.398Z,1.25
2023-01-07T06:17:50.933Z,1.05
2023-01-07T06:20:19.383Z,1.23
2023-01-07T06:22:49.508Z,1.10
2023-01-07T06:25:19.790Z,1.10
2023-01-07T06:27:48.425Z,1.60
2023-01-07T06:30:16.954Z,0.93
2023-01-07T06:32:46.097Z,1.70
2023-01-07T06:35:16.812Z,1.70
2023-01-07T06:37:45.462Z,1.50
2023-01-07T06:40:15.622Z,1.20
2023-01-07T06:42:44.367Z,1.20
2023-01-07T06:45:14.191Z,1.48
2023-01-07T06:47:42.938Z,1.35
2023-01-07T06:50:12.113Z,1.27
2023-01-07T06:52:41.338Z,1.35
2023-01-07T06:55:11.048Z,1.23
2023-01-07T06:57:40.815Z,1.50
2023-01-07T07:00:10.851Z,1.33
2023-01-07T07:02:39.690Z,1.58
2023-01-07T07:05:09.057Z,1.50
2023-01-07T07:07:37.507Z,1.60
2023-01-07T07:10:10.412Z,1.38
2023-01-07T07:12:41.115Z,1.50
2023-01-07T07:15:11.477Z,1.75
2023-01-07T07:17:39.919Z,1.50
2023-01-07T07:20:09.592Z,1.50
2023-01-07T07:22:38.149Z,1.90
2023-01-07T07:25:07.395Z,1.55
2023-01-07T07:27:35.988Z,1.42
2023-01-07T07:30:08.321Z,1.50
2023-01-07T07:32:37.929Z,1.70
2023-01-07T07:35:07.322Z,1.77
2023-01-07T07:37:38.300Z,1.40
2023-01-07T07:40:08.640Z,1.38
2023-01-07T07:43:10.808Z,1.77
2023-01-07T07:45:30.552Z,1.88
2023-01-07T07:47:59.212Z,1.60
2023-01-07T07:50:28.005Z,1.48
2023-01-07T07:52:58.234Z,1.75
2023-01-07T07:55:29.735Z,1.80
2023-01-07T07:57:59.902Z,1.73
2023-01-07T08:00:31.529Z,1.52
2023-01-07T08:03:00.549Z,1.98
2023-01-07T08:05:30.972Z,1.85
2023-01-07T08:08:00.161Z,1.95
2023-01-07T08:10:31.446Z,1.70
2023-01-07T08:13:01.276Z,1.88
2023-01-07T08:15:32.706Z,1.58
2023-01-07T08:18:09.710Z,1.75
2023-01-07T08:20:39.041Z,1.80
2023-01-07T08:23:09.656Z,1.80
2023-01-07T08:25:42.520Z,1.92
2023-01-07T08:28:12.191Z,2.08
2023-01-07T08:30:44.943Z,2.08
2023-01-07T08:33:13.820Z,2.42
2023-01-07T08:35:43.743Z,2.42
2023-01-07T08:38:12.611Z,2.30
2023-01-07T08:40:47.404Z,2.38
2023-01-07T08:43:15.878Z,2.33
2023-01-07T08:45:53.888Z,2.17
2023-01-07T08:48:23.003Z,2.30
2023-01-07T08:50:56.746Z,2.30
2023-01-07T08:53:27.787Z,2.80
2023-01-07T08:55:58.719Z,3.13
2023-01-07T08:58:28.260Z,2.90
2023-01-07T09:01:04.286Z,3.35
2023-01-07T09:03:33.111Z,2.60
2023-01-07T09:06:04.225Z,2.45
2023-01-07T09:08:33.135Z,2.83
2023-01-07T09:11:02.015Z,2.45
2023-01-07T09:13:30.600Z,2.63
2023-01-07T09:16:01.171Z,2.38
2023-01-07T09:18:31.474Z,2.72
2023-01-07T09:21:04.432Z,2.60
2023-01-07T09:23:34.468Z,2.50
2023-01-07T09:26:03.725Z,2.58
2023-01-07T09:28:38.321Z,2.42
2023-01-07T09:31:15.498Z,2.30
2023-01-07T09:33:49.181Z,2.58
2023-01-07T09:36:24.862Z,2.90
2023-01-07T09:38:57.084Z,2.40
2023-01-07T09:41:35.142Z,2.95
2023-01-07T09:44:14.538Z,2.28
2023-01-07T09:46:46.149Z,2.13
2023-01-07T09:49:19.800Z,2.30
2023-01-07T09:52:00.108Z,1.80
2023-01-07T09:54:34.523Z,2.63
2023-01-07T09:57:03.766Z,3.00
2023-01-07T09:59:33.783Z,2.20
2023-01-07T10:02:19.284Z,2.05
2023-01-07T10:04:59.232Z,2.85
2023-01-07T10:07:36.379Z,2.30
2023-01-07T10:10:23.288Z,2.63
2023-01-07T10:13:00.826Z,2.30
2023-01-07T10:15:57.569Z,2.50
2023-01-07T10:18:46.030Z,2.50
2023-01-07T10:21:30.289Z,2.60
2023-01-07T10:24:05.736Z,2.53
2023-01-07T10:26:38.723Z,2.50
2023-01-07T10:29:13.949Z,2.55
2023-01-07T10:31:46.101Z,2.67
2023-01-07T10:34:30.775Z,2.60
2023-01-07T10:37:04.784Z,2.58
2023-01-07T10:39:50.955Z,2.40
2023-01-07T10:42:27.775Z,3.03
2023-01-07T10:45:19.405Z,2.25
2023-01-07T10:48:30.195Z,2.17
2023-01-07T10:51:19.238Z,2.83
2023-01-07T10:54:04.468Z,1.95
2023-01-07T10:56:44.869Z,2.58
2023-01-07T10:59:21.474Z,2.63
2023-01-07T11:01:54.846Z,2.10
2023-01-07T11:04:25.617Z,2.72
2023-01-07T11:06:59.104Z,1.95
2023-01-07T11:09:34.356Z,2.35
2023-01-07T11:12:19.453Z,1.75
2023-01-07T11:14:53.123Z,1.98
2023-01-07T11:17:33.317Z,1.40
2023-01-07T11:20:02.949Z,1.25
2023-01-07T11:22:45.734Z,2.63
2023-01-07T11:25:34.031Z,1.60
2023-01-07T11:28:05.264Z,1.90
2023-01-07T11:30:39.644Z,1.48
2023-01-07T11:33:23.858Z,1.50
2023-01-07T11:36:42.410Z,0.88
2023-01-07T11:39:13.693Z,1.10
2023-01-07T11:41:56.979Z,1.17
2023-01-07T11:44:32.046Z,1.50
2023-01-07T11:47:17.602Z,1.40
2023-01-07T11:49:54.865Z,1.38
2023-01-07T11:52:25.119Z,1.60
2023-01-07T11:55:00.299Z,1.48
2023-01-07T11:57:31.739Z,1.35
2023-01-07T12:00:16.610Z,1.33
2023-01-07T12:02:47.782Z,1.17
2023-01-07T12:05:23.668Z,1.30
2023-01-07T12:08:00.588Z,1.50
2023-01-07T12:10:37.243Z,1.00
2023-01-07T12:13:28.310Z,1.15
2023-01-07T12:16:02.259Z,0.82
2023-01-07T12:19:07.535Z,1.10
2023-01-07T12:21:52.304Z,1.02
2023-01-07T12:24:53.239Z,1.40
2023-01-07T12:27:38.342Z,1.33
2023-01-07T12:30:27.166Z,1.00
2023-01-07T12:33:11.470Z,1.00
2023-01-07T12:35:47.398Z,1.30
2023-01-07T12:38:27.426Z,1.33
2023-01-07T12:41:02.862Z,1.17
2023-01-07T12:43:51.292Z,1.20
2023-01-07T12:46:27.518Z,1.17
2023-01-07T12:49:05.453Z,1.25
2023-01-07T12:51:45.921Z,1.27
2023-01-07T12:54:32.455Z,1.60
2023-01-07T12:57:12.613Z,1.30
2023-01-07T12:59:48.114Z,2.00
2023-01-07T13:02:51.761Z,1.50
2023-01-07T13:05:28.304Z,1.65
2023-01-07T13:08:04.510Z,1.13
2023-01-07T13:10:41.259Z,1.17
2023-01-07T13:13:18.115Z,1.10
2023-01-07T13:15:50.703Z,1.23
2023-01-07T13:18:40.753Z,1.13
2023-01-07T13:21:20.834Z,1.33
2023-01-07T13:24:19.032Z,1.05
2023-01-07T13:26:56.673Z,1.00
2023-01-07T13:29:52.381Z,1.30
2023-01-07T13:33:01.464Z,1.23
2023-01-07T13:35:51.306Z,1.90
2023-01-07T13:39:00.460Z,1.05
2023-01-07T13:41:51.111Z,1.73
2023-01-07T13:44:52.172Z,1.23
2023-01-07T13:47:23.473Z,1.65
2023-01-07T13:49:58.251Z,1.50
2023-01-07T13:52:33.552Z,1.67
2023-01-07T13:55:35.456Z,1.33
2023-01-07T13:58:04.500Z,1.23
2023-01-07T14:00:48.429Z,1.42
2023-01-07T14:03:34.869Z,1.23
2023-01-07T14:09:45.658Z,1.55
2023-01-07T14:12:38.709Z,1.45
2023-01-07T14:19:08.528Z,1.50
2023-01-07T14:22:03.654Z,1.80
2023-01-07T14:24:54.573Z,1.40
2023-01-07T14:28:01.037Z,2.47
2023-01-07T14:30:47.911Z,1.85
2023-01-07T14:33:53.522Z,1.90
2023-01-07T14:44:30.605Z,2.10
2023-01-07T14:46:59.288Z,1.70
2023-01-07T14:49:54.275Z,2.17
2023-01-07T14:52:47.185Z,2.03
2023-01-07T14:56:00.919Z,1.90
2023-01-07T14:58:49.742Z,2.72
2023-01-07T15:01:36.379Z,1.85
2023-01-07T15:04:54.668Z,2.53
2023-01-07T15:07:35.233Z,2.50
2023-01-07T15:10:37.125Z,3.35
2023-01-07T15:13:26.462Z,2.85
2023-01-07T15:16:06.723Z,2.85
2023-01-07T15:18:47.696Z,2.47
2023-01-07T15:21:30.457Z,2.30
2023-01-07T15:24:09.144Z,2.88
2023-01-07T15:26:47.200Z,3.25
2023-01-07T15:29:24.490Z,2.35
2023-01-07T15:32:01.004Z,2.75
2023-01-07T15:34:34.532Z,2.53
2023-01-07T15:37:06.784Z,2.92
2023-01-07T15:39:40.991Z,2.60
2023-01-07T15:42:17.445Z,2.63
2023-01-07T15:44:49.939Z,2.92
2023-01-07T15:47:39.658Z,3.53
2023-01-07T15:50:30.802Z,3.03
2023-01-07T15:53:01.487Z,3.63
2023-01-07T15:55:35.180Z,2.97
2023-01-07T15:58:07.446Z,2.75
2023-01-07T16:00:40.178Z,2.47
2023-01-07T16:03:10.495Z,3.67
2023-01-07T16:05:40.721Z,2.70
2023-01-07T16:08:19.083Z,3.53
2023-01-07T16:11:00.937Z,2.90
2023-01-07T16:13:30.358Z,3.35
2023-01-07T16:16:03.607Z,2.63
2023-01-07T16:18:34.279Z,2.67
2023-01-07T16:21:09.392Z,3.35
2023-01-07T16:23:40.592Z,2.85
2023-01-07T16:26:11.577Z,2.55
2023-01-07T16:28:43.557Z,3.10
2023-01-07T16:31:21.923Z,3.22
2023-01-07T16:33:54.391Z,2.42
2023-01-07T16:36:28.493Z,3.15
2023-01-07T16:39:00.374Z,3.53
2023-01-07T16:41:31.299Z,3.17
2023-01-07T16:44:08.374Z,3.72
2023-01-07T16:46:43.163Z,3.35
2023-01-07T16:49:31.281Z,3.17
2023-01-07T16:52:14.247Z,2.88
2023-01-07T16:54:45.718Z,2.78
2023-01-07T16:57:31.564Z,3.05
2023-01-07T17:00:06.428Z,2.33
2023-01-07T17:02:41.041Z,2.80
2023-01-07T17:05:18.737Z,2.80
2023-01-07T17:07:54.058Z,2.42
2023-01-07T17:10:32.392Z,2.75
2023-01-07T17:13:03.798Z,2.70
2023-01-07T17:15:39.643Z,2.17
2023-01-07T17:18:33.077Z,2.63
2023-01-07T17:21:02.731Z,2.50
2023-01-07T17:23:45.907Z,2.58
2023-01-07T17:26:21.389Z,2.67
2023-01-07T17:28:54.024Z,2.00
2023-01-07T17:31:23.878Z,2.40
2023-01-07T17:33:53.479Z,4.38
2023-01-07T17:36:24.720Z,3.75
2023-01-07T17:38:55.521Z,1.90
2023-01-07T17:41:42.589Z,2.85
2023-01-07T17:44:14.667Z,2.70
2023-01-07T17:46:44.613Z,3.15
2023-01-07T17:49:14.157Z,2.53
2023-01-07T17:51:45.217Z,2.78
2023-01-07T17:54:21.585Z,2.47
2023-01-07T17:56:50.867Z,3.08
2023-01-07T17:59:23.036Z,3.55
2023-01-07T18:01:55.512Z,3.45
2023-01-07T18:04:24.246Z,2.60
2023-01-07T18:06:52.633Z,2.42
2023-01-07T18:09:22.965Z,2.03
2023-01-07T18:12:08.767Z,2.67
2023-01-07T18:14:37.166Z,2.28
2023-01-07T18:17:07.538Z,2.60
2023-01-07T18:19:35.905Z,1.77
2023-01-07T18:22:04.337Z,2.30
2023-01-07T18:24:35.061Z,2.65
2023-01-07T18:27:03.489Z,3.28
2023-01-07T18:29:32.330Z,2.78
2023-01-07T18:32:00.924Z,2.60
2023-01-07T18:34:29.878Z,2.58
2023-01-07T18:36:58.832Z,2.70
2023-01-07T18:39:27.819Z,3.17
2023-01-07T18:41:57.820Z,2.90
2023-01-07T18:44:26.891Z,2.55
2023-01-07T18:46:55.283Z,2.67
2023-01-07T18:49:23.907Z,3.45
2023-01-07T18:51:52.567Z,3.17
2023-01-07T18:54:21.778Z,2.97
2023-01-07T18:56:50.637Z,3.60
2023-01-07T18:59:20.994Z,3.03
2023-01-07T19:01:49.680Z,3.75
2023-01-07T19:04:18.478Z,3.42
2023-01-07T19:06:47.260Z,3.42
2023-01-07T19:09:15.861Z,3.38
2023-01-07T19:11:44.148Z,4.00
2023-01-07T19:14:12.700Z,3.35
2023-01-07T19:16:42.828Z,4.22
2023-01-07T19:19:11.835Z,3.75
2023-01-07T19:21:40.362Z,3.83
2023-01-07T19:24:09.245Z,3.58
2023-01-07T19:26:37.780Z,3.35
2023-01-07T19:29:06.140Z,3.50
2023-01-07T19:31:34.541Z,4.22
2023-01-07T19:34:05.257Z,2.80
2023-01-07T19:36:34.044Z,3.30
2023-01-07T19:39:02.504Z,3.55
2023-01-07T19:41:33.278Z,3.53
2023-01-07T19:47:44.231Z,3.65
2023-01-07T19:51:04.013Z,3.60
2023-01-07T19:54:21.847Z,5.47
2023-01-07T19:57:02.903Z,4.40
2023-01-07T20:03:18.263Z,3.33
2023-01-07T20:09:27.411Z,4.05
2023-01-07T20:15:49.491Z,3.33
2023-01-07T20:19:13.994Z,3.35
2023-01-07T20:21:59.842Z,3.13
2023-01-07T20:24:37.516Z,3.60
2023-01-07T20:27:16.857Z,3.13
2023-01-07T20:29:53.838Z,3.25
2023-01-07T20:32:31.370Z,3.25
2023-01-07T20:35:47.741Z,3.88
2023-01-07T20:38:57.905Z,3.13
2023-01-07T20:41:31.724Z,3.15
2023-01-07T20:44:36.053Z,3.72
2023-01-07T20:47:06.036Z,3.47
2023-01-07T20:49:41.277Z,4.20
2023-01-07T20:52:16.103Z,3.70
2023-01-07T20:55:07.023Z,3.55
2023-01-07T20:57:35.878Z,3.97
2023-01-07T21:00:08.788Z,3.33
2023-01-07T21:02:43.773Z,3.78
2023-01-07T21:05:24.894Z,3.67
2023-01-07T21:07:56.125Z,4.47
2023-01-07T21:11:36.821Z,5.18
2023-01-07T21:14:28.159Z,3.67
2023-01-07T21:17:00.189Z,4.40
2023-01-07T21:19:33.729Z,3.78
2023-01-07T21:22:05.430Z,4.05
2023-01-07T21:24:38.136Z,3.35
2023-01-07T21:27:07.868Z,4.45
2023-01-07T21:29:51.316Z,4.60
2023-01-07T21:32:22.115Z,4.45
2023-01-07T21:34:52.942Z,3.38
2023-01-07T21:37:29.202Z,4.50
2023-01-07T21:39:59.105Z,5.60
2023-01-07T21:42:28.537Z,5.03
2023-01-07T21:44:58.264Z,5.30
2023-01-07T21:47:33.083Z,3.63
2023-01-07T21:50:03.778Z,3.05
2023-01-07T21:52:39.995Z,4.45
2023-01-07T21:55:10.470Z,3.20
2023-01-07T21:57:48.402Z,3.95
2023-01-07T22:00:17.940Z,3.55
2023-01-07T22:02:48.092Z,3.60
2023-01-07T22:05:19.725Z,3.70
2023-01-07T22:07:50.026Z,3.47
2023-01-07T22:10:19.841Z,3.65
2023-01-07T22:12:50.533Z,3.63
2023-01-07T22:15:19.860Z,3.83
2023-01-07T22:17:58.447Z,3.85
2023-01-07T22:20:31.105Z,4.18
2023-01-07T22:23:07.463Z,4.55
2023-01-07T22:25:37.564Z,3.35
2023-01-07T22:28:08.492Z,3.40
2023-01-07T22:30:54.898Z,3.92
2023-01-07T22:33:35.525Z,3.53
2023-01-07T22:36:06.237Z,4.07
2023-01-07T22:38:37.386Z,3.42
2023-01-07T22:41:09.788Z,3.85
2023-01-07T22:44:08.546Z,3.58
2023-01-07T22:46:48.212Z,2.70
2023-01-07T22:49:18.091Z,3.58
2023-01-07T22:52:02.194Z,4.00
2023-01-07T22:54:34.767Z,3.17
2023-01-07T22:57:07.224Z,3.30
2023-01-07T22:59:38.305Z,3.40
2023-01-07T23:02:17.702Z,2.92
2023-01-07T23:04:48.326Z,2.75
2023-01-07T23:07:23.151Z,2.88
2023-01-07T23:09:53.374Z,3.30
2023-01-07T23:12:25.053Z,2.70
2023-01-07T23:14:58.000Z,3.78
2023-01-07T23:17:32.591Z,3.28
2023-01-07T23:20:09.831Z,3.13
2023-01-07T23:22:44.952Z,3.67
2023-01-07T23:25:19.880Z,3.30
2023-01-07T23:27:56.454Z,3.42
2023-01-07T23:30:25.593Z,3.90
2023-01-07T23:33:08.313Z,2.90
2023-01-07T23:35:38.847Z,3.38
2023-01-07T23:38:21.056Z,3.28
2023-01-07T23:41:07.548Z,3.08
2023-01-07T23:43:37.836Z,3.95
2023-01-07T23:46:20.736Z,3.25
2023-01-07T23:49:05.867Z,3.50
2023-01-07T23:51:54.457Z,4.53
2023-01-07T23:54:24.539Z,4.32
2023-01-07T23:57:35.345Z,3.90
